Ann Arbor, MI

6:17 PM EST on February 05, 2016 (GMT -0500)
Polo Fields | | Change Station
CLOSE
Current Station
Personal Weather Station
Location: Ann Arbor, MI
Elevation: 912 ft
Nearby Weather Stations

Elev 912 ft 42.27 °N, 83.82 °W | Updated 10 seconds ago

Overcast
Overcast
34.9 °F
Feels Like 31 °F
N
4.7
Wind Variable Wind from SSW
Gusts 7.3 mph

Today
High -- | Low -- °F
--% Chance of Precip.
Yesterday
High -- | Low -- °F
Precip. -- in
Pressure 30.32 in
Visibility 10.0 miles
Clouds Overcast 7000 ft
Windchill 31 °F
Dew Point 26 °F
Humidity 71%
Rainfall 0.00 in
Snow Depth Not available.
7:44 AM 5:54 PM
Waning Crescent, 9% visible
METAR KARB 052253Z 22006KT 10SM OVC070 02/M06 A3029 RMK AO2 SLP267 T00221056
Pressure 30.32 in
Visibility 10.0 miles
Clouds Overcast 7000 ft
Windchill 31 °F
Dew Point 26 °F
Humidity 71%
Rainfall 0.00 in
Snow Depth Not available.
7:44 AM 5:54 PM
Waning Crescent, 9% visible
METAR KARB 052253Z 22006KT 10SM OVC070 02/M06 A3029 RMK AO2 SLP267 T00221056

10-Day Weather Forecast

Almanac

Astronomy

Feb. 05, 2016 Rise Set
Actual Time
Civil Twilight
Nautical Twilight
Astronomical Twilight
Moon
Length of Visible Light
Length of Day
Tomorrow will be .
, % of the Moon is Illuminated

Today's Extremes

State Highs State Lows

Community

WunderPhotos

Upload Photos

1,890,881 photos uploaded!

WunderBlog® & News

Nearby

Air Quality

  Air Quality AQ Index Pollutant
Not available.

Snow Depth

Station Depth Elevation

Earthquake Activity

City Distance Mag. Time & Date
Minimum magnitude displayed is 2.5.

Coastal Water Temperatures

Place Temperature

Stations

Nearby Weather Stations

Station Location Temp. Windchill Dew Point Humidity Wind Precip. Elev Updated Type
                   

Watches & Warnings

There are currently no watches in effect.